Time;durP1;ratioP1;P1;durP2;ratioP2;P2;SDS_P1;SDS_P2;PMS_P1;PMS_P2;Temp;Humidity;BMP_temperature;BMP_pressure;BME280_temperature;BME280_humidity;BME280_pressure;Samples;Min_cycle;Max_cycle;Signal;HPM_P1;HPM_P2
2021/01/05 00:00:21;;;;;;;19.70;12.93;;;;;;;;;;5032798;28;20028;-79
2021/01/05 00:03:06;;;;;;;19.63;11.73;;;;;;;;;;5034205;28;20072;-79
2021/01/05 00:05:51;;;;;;;19.30;12.18;;;;;;;;;;5027581;28;20118;-79
2021/01/05 00:08:36;;;;;;;23.10;12.73;;;;;;;;;;5034086;28;20482;-79
2021/01/05 00:11:22;;;;;;;18.25;11.77;;;;;;;;;;5039583;28;20040;-79
2021/01/05 00:14:07;;;;;;;19.98;12.32;;;;;;;;;;5038585;28;20035;-79
2021/01/05 00:16:52;;;;;;;19.38;12.25;;;;;;;;;;5039761;28;20059;-81
2021/01/05 00:19:37;;;;;;;21.08;13.15;;;;;;;;;;5042179;28;20465;-79
2021/01/05 00:22:23;;;;;;;20.38;12.50;;;;;;;;;;5038034;28;20036;-80
2021/01/05 00:25:08;;;;;;;20.75;12.55;;;;;;;;;;5034108;28;20464;-79
2021/01/05 00:27:54;;;;;;;20.27;13.18;;;;;;;;;;5041927;28;20036;-79
2021/01/05 00:30:39;;;;;;;22.05;15.18;;;;;;;;;;5040716;28;20047;-78
2021/01/05 00:33:25;;;;;;;22.65;15.00;;;;;;;;;;5037252;28;20033;-80
2021/01/05 00:36:10;;;;;;;23.10;13.88;;;;;;;;;;5037121;28;20061;-79
2021/01/05 00:38:55;;;;;;;23.23;13.82;;;;;;;;;;5038342;28;20031;-79
2021/01/05 00:41:40;;;;;;;22.40;12.77;;;;;;;;;;5033551;28;20049;-79
2021/01/05 00:44:25;;;;;;;25.50;13.93;;;;;;;;;;5043124;28;20095;-79
2021/01/05 00:47:11;;;;;;;23.38;14.63;;;;;;;;;;5036110;28;20479;-80
2021/01/05 00:49:56;;;;;;;22.75;14.50;;;;;;;;;;5040018;28;20443;-79
2021/01/05 00:52:41;;;;;;;23.45;14.65;;;;;;;;;;5040109;28;20026;-80
2021/01/05 00:55:26;;;;;;;24.15;14.75;;;;;;;;;;5035342;28;20053;-79
2021/01/05 00:58:11;;;;;;;24.30;15.02;;;;;;;;;;5041867;28;20107;-79
2021/01/05 01:00:57;;;;;;;25.20;16.20;;;;;;;;;;5034786;28;20515;-79
2021/01/05 01:03:42;;;;;;;29.70;15.68;;;;;;;;;;5049433;28;20037;-80
2021/01/05 01:06:27;;;;;;;24.15;14.32;;;;;;;;;;5037504;28;20029;-80
2021/01/05 01:09:12;;;;;;;24.73;14.55;;;;;;;;;;5039410;28;20032;-79
2021/01/05 01:11:58;;;;;;;25.08;16.58;;;;;;;;;;5038266;28;20025;-79
2021/01/05 01:14:44;;;;;;;24.30;15.05;;;;;;;;;;5036181;28;20029;-79
2021/01/05 01:17:29;;;;;;;24.60;14.73;;;;;;;;;;5038373;28;20379;-80
2021/01/05 01:20:15;;;;;;;23.92;14.55;;;;;;;;;;5032833;28;20480;-79
2021/01/05 01:23:00;;;;;;;25.20;14.63;;;;;;;;;;5037568;28;20439;-80
2021/01/05 01:25:45;;;;;;;25.02;13.85;;;;;;;;;;5036810;28;20021;-79
2021/01/05 01:28:30;;;;;;;25.13;15.02;;;;;;;;;;5032297;28;20029;-79
2021/01/05 01:31:16;;;;;;;25.73;15.95;;;;;;;;;;5033894;28;20383;-79
2021/01/05 01:34:01;;;;;;;25.20;15.50;;;;;;;;;;5034797;28;20090;-78
2021/01/05 01:36:53;;;;;;;27.55;17.05;;;;;;;;;;5030955;28;20499;-79
2021/01/05 01:39:39;;;;;;;23.40;13.63;;;;;;;;;;5026696;28;20044;-79
2021/01/05 01:42:25;;;;;;;26.23;16.25;;;;;;;;;;5037984;28;20020;-79
2021/01/05 01:45:21;;;;;;;23.85;14.55;;;;;;;;;;5039610;28;20104;-79
2021/01/05 01:48:08;;;;;;;25.20;16.95;;;;;;;;;;5040479;28;20056;-79
2021/01/05 01:50:54;;;;;;;26.42;16.17;;;;;;;;;;5030449;28;20044;-79
2021/01/05 01:53:39;;;;;;;26.05;16.00;;;;;;;;;;5036897;28;20040;-79
2021/01/05 01:56:43;;;;;;;23.25;15.70;;;;;;;;;;5032288;28;20128;-79
2021/01/05 01:59:40;;;;;;;26.00;14.95;;;;;;;;;;5031836;28;20048;-80
2021/01/05 02:02:37;;;;;;;29.10;17.00;;;;;;;;;;5037311;28;20033;-80
2021/01/05 02:05:32;;;;;;;26.02;15.88;;;;;;;;;;5036691;28;20027;-80
2021/01/05 02:08:36;;;;;;;23.90;14.60;;;;;;;;;;5035985;28;20082;-78
2021/01/05 02:11:21;;;;;;;26.50;16.33;;;;;;;;;;5039332;28;20021;-79
2021/01/05 02:14:16;;;;;;;26.92;17.40;;;;;;;;;;5033138;28;20593;-79
2021/01/05 02:17:20;;;;;;;24.90;15.93;;;;;;;;;;5039871;28;20025;-79
2021/01/05 02:20:09;;;;;;;28.48;17.33;;;;;;;;;;5031807;28;21405;-79
2021/01/05 02:23:13;;;;;;;28.00;18.77;;;;;;;;;;5039979;28;20037;-79
2021/01/05 02:26:05;;;;;;;25.42;14.07;;;;;;;;;;5033007;28;20041;-79
2021/01/05 02:28:52;;;;;;;26.95;16.58;;;;;;;;;;5039806;28;20416;-79
2021/01/05 02:31:40;;;;;;;26.20;17.55;;;;;;;;;;5031386;28;20456;-79
2021/01/05 02:34:36;;;;;;;22.88;14.63;;;;;;;;;;5036098;28;20104;-79
2021/01/05 02:37:24;;;;;;;26.25;16.48;;;;;;;;;;5042061;28;20029;-79
2021/01/05 02:40:30;;;;;;;26.85;16.52;;;;;;;;;;5029578;28;20025;-79
2021/01/05 02:43:16;;;;;;;26.10;18.00;;;;;;;;;;5038113;28;20044;-79
2021/01/05 02:46:27;;;;;;;23.50;15.00;;;;;;;;;;5026608;28;20033;-79
2021/01/05 02:49:19;;;;;;;27.85;16.58;;;;;;;;;;5039299;28;20445;-79
2021/01/05 02:52:23;;;;;;;22.55;15.18;;;;;;;;;;5037029;28;20040;-79
2021/01/05 02:55:27;;;;;;;25.98;15.32;;;;;;;;;;5033423;28;20053;-78
2021/01/05 02:58:31;;;;;;;22.80;14.27;;;;;;;;;;5037527;28;20037;-78
2021/01/05 03:01:22;;;;;;;22.80;14.32;;;;;;;;;;5029771;28;20029;-78
2021/01/05 03:04:07;;;;;;;25.38;14.80;;;;;;;;;;5038493;28;20096;-78
2021/01/05 03:06:56;;;;;;;24.73;15.82;;;;;;;;;;5023170;28;20037;-79
2021/01/05 03:09:41;;;;;;;29.77;18.00;;;;;;;;;;5034701;28;20188;-78
2021/01/05 03:12:29;;;;;;;26.85;15.48;;;;;;;;;;5039438;28;20040;-79
2021/01/05 03:15:26;;;;;;;31.25;16.92;;;;;;;;;;5039699;28;20051;-79
2021/01/05 03:18:17;;;;;;;31.05;17.90;;;;;;;;;;5036908;28;20025;-79
2021/01/05 03:21:09;;;;;;;30.55;17.90;;;;;;;;;;5038301;28;20418;-79
2021/01/05 03:23:55;;;;;;;33.25;18.52;;;;;;;;;;5031779;28;20124;-79
2021/01/05 03:26:46;;;;;;;32.85;18.67;;;;;;;;;;5032499;28;20172;-78
2021/01/05 03:29:31;;;;;;;32.42;17.75;;;;;;;;;;5033863;28;20083;-79
2021/01/05 03:32:16;;;;;;;30.17;19.70;;;;;;;;;;5029602;28;20057;-79
2021/01/05 03:35:01;;;;;;;29.25;18.50;;;;;;;;;;5032290;28;20091;-79
2021/01/05 03:37:46;;;;;;;30.27;17.65;;;;;;;;;;5037503;28;20127;-78
2021/01/05 03:40:32;;;;;;;34.50;21.58;;;;;;;;;;5034877;28;20025;-79
2021/01/05 03:43:17;;;;;;;32.60;18.90;;;;;;;;;;5043771;28;20021;-80
2021/01/05 03:46:02;;;;;;;33.47;20.48;;;;;;;;;;5031525;28;20116;-78
2021/01/05 03:48:47;;;;;;;33.30;19.77;;;;;;;;;;5035930;28;20052;-80
2021/01/05 03:51:33;;;;;;;30.98;18.73;;;;;;;;;;5038055;28;20049;-79
2021/01/05 03:54:18;;;;;;;31.80;19.13;;;;;;;;;;5035600;28;20391;-79
2021/01/05 03:57:04;;;;;;;39.38;22.02;;;;;;;;;;5042010;28;20525;-79
2021/01/05 03:59:49;;;;;;;39.42;20.13;;;;;;;;;;5039403;28;20400;-79
2021/01/05 04:02:34;;;;;;;33.40;21.05;;;;;;;;;;5039453;28;20028;-79
2021/01/05 04:05:20;;;;;;;37.28;23.02;;;;;;;;;;5033341;28;20383;-78
2021/01/05 04:08:06;;;;;;;31.50;18.92;;;;;;;;;;5035528;28;20065;-80
2021/01/05 04:10:51;;;;;;;31.92;19.20;;;;;;;;;;5038644;28;20468;-78
2021/01/05 04:13:36;;;;;;;31.50;20.02;;;;;;;;;;5039699;28;20021;-79
2021/01/05 04:16:21;;;;;;;33.15;20.13;;;;;;;;;;5038705;28;20029;-79
2021/01/05 04:19:06;;;;;;;31.67;20.00;;;;;;;;;;5030978;28;20255;-79
2021/01/05 04:21:52;;;;;;;31.70;18.52;;;;;;;;;;5032574;28;20384;-79
2021/01/05 04:24:37;;;;;;;35.10;19.17;;;;;;;;;;5026529;28;20032;-79
2021/01/05 04:27:22;;;;;;;30.98;19.77;;;;;;;;;;5042793;28;20060;-80
2021/01/05 04:30:09;;;;;;;32.33;19.67;;;;;;;;;;5037517;28;20099;-79
2021/01/05 04:32:56;;;;;;;31.20;19.73;;;;;;;;;;5038844;28;20411;-79
2021/01/05 04:35:41;;;;;;;31.45;18.20;;;;;;;;;;5034566;28;20037;-79
2021/01/05 04:38:26;;;;;;;32.95;19.70;;;;;;;;;;5037285;28;20060;-79
2021/01/05 04:41:17;;;;;;;29.88;17.95;;;;;;;;;;5042196;28;20492;-77
2021/01/05 04:44:03;;;;;;;34.72;21.75;;;;;;;;;;5036064;28;20063;-78
2021/01/05 04:46:51;;;;;;;28.60;16.58;;;;;;;;;;5034043;28;20021;-79
2021/01/05 04:49:55;;;;;;;33.85;20.20;;;;;;;;;;5044368;28;20021;-78
2021/01/05 04:53:01;;;;;;;30.70;18.40;;;;;;;;;;5040611;28;20025;-78
2021/01/05 04:55:49;;;;;;;33.10;18.67;;;;;;;;;;5020035;28;20131;-78
2021/01/05 04:58:38;;;;;;;33.78;20.65;;;;;;;;;;5043931;28;20279;-78
2021/01/05 05:01:27;;;;;;;35.65;20.90;;;;;;;;;;5034474;28;20053;-78
2021/01/05 05:04:21;;;;;;;32.72;19.50;;;;;;;;;;5037836;28;20025;-78
2021/01/05 05:07:19;;;;;;;31.02;19.83;;;;;;;;;;5036203;28;20063;-79
2021/01/05 05:10:20;;;;;;;36.63;22.02;;;;;;;;;;5041297;28;20036;-77
2021/01/05 05:13:11;;;;;;;34.38;21.60;;;;;;;;;;5034355;28;20480;-77
2021/01/05 05:16:01;;;;;;;30.25;19.17;;;;;;;;;;5033002;28;20086;-78
2021/01/05 05:18:47;;;;;;;33.13;20.85;;;;;;;;;;5031343;28;20368;-78
2021/01/05 05:21:34;;;;;;;31.98;19.08;;;;;;;;;;5030967;28;20026;-78
2021/01/05 05:24:19;;;;;;;35.05;21.55;;;;;;;;;;5040094;28;20104;-78
2021/01/05 05:27:14;;;;;;;41.67;20.80;;;;;;;;;;5038899;28;20483;-77
2021/01/05 05:30:03;;;;;;;31.70;20.67;;;;;;;;;;5035183;28;20029;-78
2021/01/05 05:32:54;;;;;;;28.02;18.42;;;;;;;;;;5034152;28;20031;-77
2021/01/05 05:35:58;;;;;;;35.45;21.75;;;;;;;;;;5040023;28;20539;-77
2021/01/05 05:38:52;;;;;;;34.60;20.63;;;;;;;;;;5031466;28;20044;-78
2021/01/05 05:42:00;;;;;;;35.15;19.48;;;;;;;;;;5040229;28;20103;-78
2021/01/05 05:44:48;;;;;;;30.52;20.20;;;;;;;;;;5036528;28;20017;-78
2021/01/05 05:48:00;;;;;;;31.80;21.15;;;;;;;;;;5035914;28;20533;-78
2021/01/05 05:51:04;;;;;;;32.92;19.05;;;;;;;;;;5036313;28;20037;-77
2021/01/05 05:53:59;;;;;;;31.08;20.52;;;;;;;;;;5029027;28;20025;-77
2021/01/05 05:57:03;;;;;;;28.42;18.70;;;;;;;;;;5033092;28;20672;-77
2021/01/05 05:59:51;;;;;;;32.70;19.52;;;;;;;;;;5029840;28;20013;-81
2021/01/05 06:02:37;;;;;;;32.67;20.20;;;;;;;;;;5039857;28;20029;-78
2021/01/05 06:05:27;;;;;;;32.05;20.13;;;;;;;;;;5040953;28;20479;-79
2021/01/05 06:08:13;;;;;;;32.83;18.98;;;;;;;;;;5039673;28;20279;-78
2021/01/05 06:10:58;;;;;;;31.13;18.38;;;;;;;;;;5036119;28;20018;-79
2021/01/05 06:13:43;;;;;;;28.52;19.55;;;;;;;;;;5033487;28;20029;-79
2021/01/05 06:16:32;;;;;;;34.72;19.38;;;;;;;;;;5031294;28;20160;-79
2021/01/05 06:19:18;;;;;;;30.27;19.80;;;;;;;;;;5034988;28;20051;-79
2021/01/05 06:22:03;;;;;;;36.38;22.10;;;;;;;;;;5035723;28;20087;-80
2021/01/05 06:24:48;;;;;;;34.42;20.23;;;;;;;;;;5032415;28;20108;-78
2021/01/05 06:27:33;;;;;;;32.17;19.73;;;;;;;;;;5031074;28;20114;-79
2021/01/05 06:30:19;;;;;;;30.15;17.92;;;;;;;;;;5032367;28;20018;-80
2021/01/05 06:33:04;;;;;;;30.23;18.92;;;;;;;;;;5037918;28;20025;-78
2021/01/05 06:35:49;;;;;;;31.77;20.52;;;;;;;;;;5031512;28;20033;-78
2021/01/05 06:38:34;;;;;;;33.90;22.33;;;;;;;;;;5037652;28;20059;-78
2021/01/05 06:41:20;;;;;;;35.30;22.13;;;;;;;;;;5030998;28;20353;-78
2021/01/05 06:44:05;;;;;;;32.90;20.50;;;;;;;;;;5041621;28;20041;-80
2021/01/05 06:46:51;;;;;;;32.50;20.52;;;;;;;;;;5036201;28;20029;-79
2021/01/05 06:49:36;;;;;;;35.10;20.85;;;;;;;;;;5036095;28;20045;-79
2021/01/05 06:52:21;;;;;;;33.70;21.58;;;;;;;;;;5035229;28;20033;-78
2021/01/05 06:55:07;;;;;;;31.98;19.20;;;;;;;;;;5030299;28;20032;-79
2021/01/05 06:57:52;;;;;;;32.08;19.33;;;;;;;;;;5036152;28;20083;-79
2021/01/05 07:00:37;;;;;;;32.13;21.10;;;;;;;;;;5033664;28;20040;-79
2021/01/05 07:03:22;;;;;;;32.15;20.40;;;;;;;;;;5029805;28;20052;-80
2021/01/05 07:06:07;;;;;;;33.97;20.48;;;;;;;;;;5030231;28;20032;-79
2021/01/05 07:08:53;;;;;;;34.45;20.88;;;;;;;;;;5031641;28;20033;-79
2021/01/05 07:11:38;;;;;;;34.25;20.90;;;;;;;;;;5029096;28;20118;-79
2021/01/05 07:14:24;;;;;;;32.33;19.75;;;;;;;;;;5034188;28;20083;-79
2021/01/05 07:17:09;;;;;;;31.42;20.70;;;;;;;;;;5033082;28;20491;-79
2021/01/05 07:19:54;;;;;;;35.88;21.80;;;;;;;;;;5032377;28;20029;-79
2021/01/05 07:22:39;;;;;;;33.83;21.60;;;;;;;;;;5033749;28;20021;-79
2021/01/05 07:25:24;;;;;;;34.20;20.17;;;;;;;;;;5034780;28;20013;-79
2021/01/05 07:28:12;;;;;;;33.53;20.42;;;;;;;;;;5033805;28;20483;-79
2021/01/05 07:30:57;;;;;;;32.72;21.45;;;;;;;;;;5034019;28;20026;-79
2021/01/05 07:33:42;;;;;;;29.55;18.42;;;;;;;;;;5032738;28;20025;-79
2021/01/05 07:36:33;;;;;;;40.25;25.40;;;;;;;;;;5032342;28;20138;-79
2021/01/05 07:39:22;;;;;;;82.43;53.42;;;;;;;;;;5032410;28;20169;-79
2021/01/05 07:42:12;;;;;;;38.42;25.23;;;;;;;;;;5029770;28;20701;-78
2021/01/05 07:44:59;;;;;;;33.17;19.92;;;;;;;;;;5035756;28;20502;-79
2021/01/05 07:47:44;;;;;;;31.83;20.40;;;;;;;;;;5034570;28;20455;-79
2021/01/05 07:50:29;;;;;;;33.53;20.38;;;;;;;;;;5037173;28;20032;-79
2021/01/05 07:53:15;;;;;;;32.40;19.70;;;;;;;;;;5040139;28;20039;-78
2021/01/05 07:56:00;;;;;;;29.52;18.17;;;;;;;;;;5030004;28;20053;-79
2021/01/05 07:58:45;;;;;;;32.38;18.13;;;;;;;;;;5036891;28;20021;-79
2021/01/05 08:01:31;;;;;;;30.02;18.27;;;;;;;;;;5031905;28;20030;-79
2021/01/05 08:04:16;;;;;;;29.58;18.85;;;;;;;;;;5035497;28;20040;-79
2021/01/05 08:07:01;;;;;;;25.33;17.25;;;;;;;;;;5026487;28;20041;-79
2021/01/05 08:09:46;;;;;;;34.33;19.63;;;;;;;;;;5031054;28;20032;-79
2021/01/05 08:12:31;;;;;;;28.58;18.67;;;;;;;;;;5036659;28;20479;-78
2021/01/05 08:15:18;;;;;;;26.33;17.48;;;;;;;;;;5035428;28;20033;-79
2021/01/05 08:18:04;;;;;;;25.70;16.45;;;;;;;;;;5034282;28;20439;-80
2021/01/05 08:20:49;;;;;;;29.73;19.00;;;;;;;;;;5037080;28;20032;-80
2021/01/05 08:23:34;;;;;;;25.92;16.38;;;;;;;;;;5034551;28;20021;-79
2021/01/05 08:26:19;;;;;;;25.73;16.10;;;;;;;;;;5036677;28;20369;-79
2021/01/05 08:29:04;;;;;;;25.95;17.15;;;;;;;;;;5036702;28;20021;-79
2021/01/05 08:31:50;;;;;;;51.20;31.88;;;;;;;;;;5037274;28;20416;-79
2021/01/05 08:34:35;;;;;;;26.83;17.75;;;;;;;;;;5034699;28;20021;-80
2021/01/05 08:37:20;;;;;;;29.70;17.55;;;;;;;;;;5037954;28;20033;-78
2021/01/05 08:40:07;;;;;;;27.88;16.08;;;;;;;;;;5038026;28;20040;-78
2021/01/05 08:42:52;;;;;;;26.13;16.30;;;;;;;;;;5038090;28;20520;-78
2021/01/05 08:45:39;;;;;;;25.52;17.38;;;;;;;;;;5031892;28;20026;-78
2021/01/05 08:48:24;;;;;;;27.70;17.40;;;;;;;;;;5041678;28;20017;-78
2021/01/05 08:51:09;;;;;;;25.77;17.27;;;;;;;;;;5035194;28;20036;-79
2021/01/05 08:53:55;;;;;;;25.27;15.50;;;;;;;;;;5035805;28;20029;-78
2021/01/05 08:56:40;;;;;;;27.77;15.80;;;;;;;;;;5039116;28;20052;-78
2021/01/05 08:59:25;;;;;;;26.65;16.88;;;;;;;;;;5033870;28;20025;-78
2021/01/05 09:02:10;;;;;;;23.92;16.67;;;;;;;;;;5039246;28;20026;-78
2021/01/05 09:04:55;;;;;;;23.40;14.85;;;;;;;;;;5033550;28;20410;-79
2021/01/05 09:07:41;;;;;;;24.88;17.40;;;;;;;;;;5045696;28;20111;-78
2021/01/05 09:10:26;;;;;;;23.23;15.15;;;;;;;;;;5035257;28;20601;-78
2021/01/05 09:13:11;;;;;;;24.42;16.42;;;;;;;;;;5033796;28;20674;-77
2021/01/05 09:15:57;;;;;;;52.65;32.88;;;;;;;;;;5043938;28;20032;-79
2021/01/05 09:18:42;;;;;;;34.33;21.23;;;;;;;;;;5042101;28;20125;-79
2021/01/05 09:21:28;;;;;;;23.80;15.82;;;;;;;;;;5029424;28;20461;-80
2021/01/05 09:24:13;;;;;;;28.25;17.73;;;;;;;;;;5043707;28;20029;-80
2021/01/05 09:26:59;;;;;;;25.75;16.30;;;;;;;;;;5036811;28;20032;-80
2021/01/05 09:29:44;;;;;;;28.58;18.35;;;;;;;;;;5044936;28;20024;-80
2021/01/05 09:32:32;;;;;;;24.73;17.42;;;;;;;;;;5028416;28;20030;-78
2021/01/05 09:35:18;;;;;;;25.80;15.63;;;;;;;;;;5037572;28;20178;-78
2021/01/05 09:38:08;;;;;;;24.90;16.80;;;;;;;;;;5036018;28;20037;-80
2021/01/05 09:40:53;;;;;;;25.33;15.23;;;;;;;;;;5041118;28;20095;-80
2021/01/05 09:43:38;;;;;;;25.27;16.73;;;;;;;;;;5034025;28;20036;-77
2021/01/05 09:46:24;;;;;;;24.42;16.83;;;;;;;;;;5038997;28;20114;-78
2021/01/05 09:49:12;;;;;;;25.75;15.80;;;;;;;;;;5040048;28;20034;-77
2021/01/05 09:52:00;;;;;;;22.63;14.63;;;;;;;;;;5039400;28;20037;-77
2021/01/05 09:54:48;;;;;;;28.85;17.67;;;;;;;;;;5035074;28;20041;-78
2021/01/05 09:57:33;;;;;;;24.27;16.33;;;;;;;;;;5037138;28;20053;-78
2021/01/05 10:00:19;;;;;;;29.00;17.98;;;;;;;;;;5036720;28;20499;-77
2021/01/05 10:03:04;;;;;;;26.38;16.73;;;;;;;;;;5043231;28;20040;-78
2021/01/05 10:05:50;;;;;;;26.70;16.50;;;;;;;;;;5040607;28;20380;-79
2021/01/05 10:08:35;;;;;;;25.30;16.85;;;;;;;;;;5036981;28;20126;-77
2021/01/05 10:11:20;;;;;;;27.40;19.20;;;;;;;;;;5038720;28;20026;-78
2021/01/05 10:14:06;;;;;;;29.67;18.10;;;;;;;;;;5041306;28;20022;-78
2021/01/05 10:16:55;;;;;;;26.20;17.98;;;;;;;;;;5035173;28;20108;-77
2021/01/05 10:19:40;;;;;;;27.27;17.90;;;;;;;;;;5042759;28;20609;-77
2021/01/05 10:22:25;;;;;;;73.90;47.35;;;;;;;;;;5034049;28;20098;-78
2021/01/05 10:25:12;;;;;;;28.35;18.65;;;;;;;;;;5034898;28;20025;-78
2021/01/05 10:27:57;;;;;;;25.13;17.33;;;;;;;;;;5037646;28;20478;-78
2021/01/05 10:30:42;;;;;;;29.70;18.25;;;;;;;;;;5031931;28;20021;-77
2021/01/05 10:33:28;;;;;;;27.27;18.83;;;;;;;;;;5034666;28;20529;-77
2021/01/05 10:36:18;;;;;;;29.23;18.25;;;;;;;;;;5035938;28;20024;-76
2021/01/05 10:39:04;;;;;;;27.38;18.13;;;;;;;;;;5040753;28;20064;-77
2021/01/05 10:41:49;;;;;;;26.77;18.73;;;;;;;;;;5038585;28;20063;-77
2021/01/05 10:44:34;;;;;;;128.45;77.22;;;;;;;;;;5032069;28;20060;-77
2021/01/05 10:47:20;;;;;;;42.85;27.27;;;;;;;;;;5040845;28;20021;-79
2021/01/05 10:50:06;;;;;;;30.80;19.65;;;;;;;;;;5042754;28;20025;-78
2021/01/05 10:52:52;;;;;;;27.45;17.13;;;;;;;;;;5042379;28;20574;-78
2021/01/05 10:55:37;;;;;;;25.65;17.95;;;;;;;;;;5031013;28;20048;-78
2021/01/05 10:58:22;;;;;;;25.70;16.70;;;;;;;;;;5031267;28;20091;-79
2021/01/05 11:01:07;;;;;;;23.52;15.40;;;;;;;;;;5033173;28;20032;-78
2021/01/05 11:03:53;;;;;;;29.55;18.45;;;;;;;;;;5034506;28;20064;-78
2021/01/05 11:06:38;;;;;;;27.67;16.45;;;;;;;;;;5027810;28;20025;-78
2021/01/05 11:09:23;;;;;;;23.90;16.92;;;;;;;;;;5030514;28;20511;-78
2021/01/05 11:12:10;;;;;;;25.77;15.90;;;;;;;;;;5029469;28;20076;-78
2021/01/05 11:14:56;;;;;;;25.50;16.92;;;;;;;;;;5041623;28;20032;-78
2021/01/05 11:17:43;;;;;;;30.77;18.73;;;;;;;;;;5036284;28;20033;-77
2021/01/05 11:20:29;;;;;;;24.52;15.27;;;;;;;;;;5035132;28;20024;-77
2021/01/05 11:23:14;;;;;;;28.48;16.85;;;;;;;;;;5035714;28;20061;-77
2021/01/05 11:25:59;;;;;;;25.30;15.55;;;;;;;;;;5031737;28;20048;-78
2021/01/05 11:28:44;;;;;;;27.30;17.13;;;;;;;;;;5038080;28;20095;-78
2021/01/05 11:31:30;;;;;;;27.17;16.35;;;;;;;;;;5031481;28;20353;-78
2021/01/05 11:34:15;;;;;;;28.45;18.35;;;;;;;;;;5034105;28;20588;-76
2021/01/05 11:37:01;;;;;;;26.30;18.27;;;;;;;;;;5039692;28;20252;-77
2021/01/05 11:39:48;;;;;;;28.25;18.20;;;;;;;;;;5038403;28;20432;-77
2021/01/05 11:42:33;;;;;;;26.33;17.13;;;;;;;;;;5028957;28;20029;-77
2021/01/05 11:45:18;;;;;;;25.70;17.17;;;;;;;;;;5035902;28;20029;-77
2021/01/05 11:48:04;;;;;;;28.58;18.13;;;;;;;;;;5031010;28;20258;-80
2021/01/05 11:50:49;;;;;;;29.10;17.88;;;;;;;;;;5031959;28;20028;-76
2021/01/05 11:53:34;;;;;;;29.70;18.67;;;;;;;;;;5032127;28;20052;-76
2021/01/05 11:56:21;;;;;;;42.45;27.92;;;;;;;;;;5036101;28;20056;-79
2021/01/05 11:59:06;;;;;;;38.60;23.27;;;;;;;;;;5033336;28;20033;-77
2021/01/05 12:01:51;;;;;;;26.48;17.10;;;;;;;;;;5036268;28;20068;-79
2021/01/05 12:04:37;;;;;;;30.92;18.83;;;;;;;;;;5041848;28;20044;-77
2021/01/05 12:07:23;;;;;;;28.13;18.02;;;;;;;;;;5039127;28;20047;-77
2021/01/05 12:10:08;;;;;;;27.90;18.17;;;;;;;;;;5040531;28;20033;-78
2021/01/05 12:12:53;;;;;;;30.92;18.90;;;;;;;;;;5044634;28;20498;-76
2021/01/05 12:15:41;;;;;;;29.80;18.70;;;;;;;;;;5043226;28;20025;-78
2021/01/05 12:18:26;;;;;;;29.80;19.98;;;;;;;;;;5038692;28;20106;-77
2021/01/05 12:21:19;;;;;;;27.98;17.75;;;;;;;;;;5044087;28;20043;-76
2021/01/05 12:24:06;;;;;;;27.23;16.92;;;;;;;;;;5046802;28;20044;-77
2021/01/05 12:26:51;;;;;;;29.35;18.77;;;;;;;;;;5038430;28;20029;-77
2021/01/05 12:29:38;;;;;;;26.52;17.58;;;;;;;;;;5035002;28;20037;-77
2021/01/05 12:32:23;;;;;;;25.75;17.80;;;;;;;;;;5030439;28;20024;-77
2021/01/05 12:35:09;;;;;;;26.15;16.55;;;;;;;;;;5035437;28;20035;-77
2021/01/05 12:37:54;;;;;;;28.23;17.73;;;;;;;;;;5039598;28;20034;-77
2021/01/05 12:40:39;;;;;;;28.52;17.92;;;;;;;;;;5031309;28;20025;-77
2021/01/05 12:43:24;;;;;;;26.98;18.50;;;;;;;;;;5039143;28;20037;-77
2021/01/05 12:46:10;;;;;;;27.50;18.08;;;;;;;;;;5031618;28;20024;-77
2021/01/05 12:48:55;;;;;;;23.92;16.08;;;;;;;;;;5048567;28;20450;-77
2021/01/05 12:51:42;;;;;;;26.05;16.80;;;;;;;;;;5037926;28;20032;-81
2021/01/05 12:54:27;;;;;;;29.63;19.42;;;;;;;;;;5039864;28;20044;-77
2021/01/05 12:57:14;;;;;;;28.20;16.80;;;;;;;;;;5044690;28;20056;-77
2021/01/05 13:00:00;;;;;;;28.08;17.98;;;;;;;;;;5024686;28;20487;-77
2021/01/05 13:02:45;;;;;;;28.98;17.08;;;;;;;;;;5036310;28;20040;-77
2021/01/05 13:05:33;;;;;;;29.13;17.27;;;;;;;;;;5042385;28;20022;-77
2021/01/05 13:08:18;;;;;;;26.55;16.77;;;;;;;;;;5037828;28;20035;-77
2021/01/05 13:11:08;;;;;;;27.67;17.63;;;;;;;;;;5037224;28;20063;-78
2021/01/05 13:13:54;;;;;;;25.13;17.17;;;;;;;;;;5039142;28;20119;-78
2021/01/05 13:16:40;;;;;;;29.27;19.52;;;;;;;;;;5043143;28;20376;-77
2021/01/05 13:19:25;;;;;;;28.42;17.35;;;;;;;;;;5031659;28;20379;-77
2021/01/05 13:22:11;;;;;;;28.30;18.30;;;;;;;;;;5032743;28;20512;-77
2021/01/05 13:24:56;;;;;;;31.05;20.10;;;;;;;;;;5034044;28;20503;-79
2021/01/05 13:27:41;;;;;;;26.60;17.83;;;;;;;;;;5040081;28;20117;-77
2021/01/05 13:30:27;;;;;;;34.90;19.58;;;;;;;;;;5034892;28;20468;-78
2021/01/05 13:33:12;;;;;;;31.25;19.30;;;;;;;;;;5041177;28;20450;-78
2021/01/05 13:35:57;;;;;;;29.70;18.48;;;;;;;;;;5034012;28;20051;-78
2021/01/05 13:38:42;;;;;;;28.02;19.50;;;;;;;;;;5036656;28;20514;-77
2021/01/05 13:41:29;;;;;;;28.33;18.15;;;;;;;;;;5039286;28;20387;-78
2021/01/05 13:44:14;;;;;;;27.05;17.67;;;;;;;;;;5035397;28;20526;-77
2021/01/05 13:47:00;;;;;;;23.23;15.23;;;;;;;;;;5036239;28;20432;-78
2021/01/05 13:49:45;;;;;;;25.13;16.50;;;;;;;;;;5035960;28;20075;-77
2021/01/05 13:52:31;;;;;;;28.48;17.70;;;;;;;;;;5033775;28;20116;-78
2021/01/05 13:55:17;;;;;;;27.38;17.67;;;;;;;;;;5037961;28;20044;-77
2021/01/05 13:58:02;;;;;;;24.83;18.02;;;;;;;;;;5037478;28;20322;-76
2021/01/05 14:00:47;;;;;;;27.35;17.52;;;;;;;;;;5037302;28;20025;-77
2021/01/05 14:03:33;;;;;;;24.63;16.50;;;;;;;;;;5034509;28;20594;-77
2021/01/05 14:06:20;;;;;;;26.50;16.95;;;;;;;;;;5034419;28;20025;-77
2021/01/05 14:09:06;;;;;;;25.58;16.65;;;;;;;;;;5040256;28;20540;-77
2021/01/05 14:11:52;;;;;;;25.25;16.60;;;;;;;;;;5034368;28;20055;-77
2021/01/05 14:14:37;;;;;;;28.30;18.35;;;;;;;;;;5032006;28;20108;-79
2021/01/05 14:17:25;;;;;;;31.45;20.05;;;;;;;;;;5029816;28;20713;-79
2021/01/05 14:20:10;;;;;;;27.60;16.83;;;;;;;;;;5039592;28;20025;-78
2021/01/05 14:22:56;;;;;;;27.70;17.60;;;;;;;;;;5032075;28;20037;-80
2021/01/05 14:25:41;;;;;;;31.25;22.05;;;;;;;;;;5039453;28;20101;-80
2021/01/05 14:28:26;;;;;;;45.80;29.83;;;;;;;;;;5030591;28;20427;-79
2021/01/05 14:31:12;;;;;;;29.23;18.48;;;;;;;;;;5034311;28;20128;-79
2021/01/05 14:33:57;;;;;;;25.08;15.77;;;;;;;;;;5033363;28;20028;-80
2021/01/05 14:36:43;;;;;;;22.83;15.60;;;;;;;;;;5034796;28;20498;-80
2021/01/05 14:39:28;;;;;;;23.13;14.90;;;;;;;;;;5029641;28;20680;-79
2021/01/05 14:42:14;;;;;;;27.25;15.75;;;;;;;;;;5028447;28;20059;-79
2021/01/05 14:44:59;;;;;;;24.45;15.63;;;;;;;;;;5042964;28;20029;-80
2021/01/05 14:47:45;;;;;;;24.50;15.48;;;;;;;;;;5031759;28;20519;-81
2021/01/05 14:50:31;;;;;;;24.00;15.48;;;;;;;;;;5035860;28;20052;-80
2021/01/05 14:53:16;;;;;;;26.08;17.10;;;;;;;;;;5040574;28;20045;-79
2021/01/05 14:56:02;;;;;;;23.13;15.43;;;;;;;;;;5033897;28;20101;-81
2021/01/05 14:58:47;;;;;;;25.63;15.93;;;;;;;;;;5043554;28;20071;-80
2021/01/05 15:01:37;;;;;;;50.85;31.10;;;;;;;;;;5041163;28;20545;-80
2021/01/05 15:04:22;;;;;;;26.63;17.80;;;;;;;;;;5034854;28;20021;-80
2021/01/05 15:07:07;;;;;;;25.20;16.85;;;;;;;;;;5037792;28;20026;-81
2021/01/05 15:09:53;;;;;;;26.48;16.27;;;;;;;;;;5027296;28;20443;-81
2021/01/05 15:12:38;;;;;;;21.98;14.90;;;;;;;;;;5037149;28;20055;-81
2021/01/05 15:15:23;;;;;;;24.13;14.88;;;;;;;;;;5030187;28;20361;-80
2021/01/05 15:18:08;;;;;;;23.42;15.20;;;;;;;;;;5040424;28;20029;-81
2021/01/05 15:20:53;;;;;;;26.02;15.95;;;;;;;;;;5033417;28;20102;-80
2021/01/05 15:23:39;;;;;;;22.80;14.48;;;;;;;;;;5030036;28;20134;-82
2021/01/05 15:26:25;;;;;;;24.67;14.75;;;;;;;;;;5035266;28;20040;-80
2021/01/05 15:29:11;;;;;;;23.10;14.23;;;;;;;;;;5035495;28;20021;-81
2021/01/05 15:31:56;;;;;;;24.75;16.02;;;;;;;;;;5033062;28;20033;-83
2021/01/05 15:34:41;;;;;;;20.95;14.43;;;;;;;;;;5035083;28;20043;-80
2021/01/05 15:37:26;;;;;;;22.08;14.57;;;;;;;;;;5029400;28;20026;-80
2021/01/05 15:40:11;;;;;;;22.80;14.32;;;;;;;;;;5043862;28;20032;-82
2021/01/05 15:42:57;;;;;;;23.08;14.05;;;;;;;;;;5034825;28;20017;-79
2021/01/05 15:45:42;;;;;;;22.48;14.35;;;;;;;;;;5037711;28;20036;-81
2021/01/05 15:48:30;;;;;;;23.13;14.52;;;;;;;;;;5046102;28;20033;-80
2021/01/05 15:51:16;;;;;;;23.38;13.80;;;;;;;;;;5034739;28;20033;-80
2021/01/05 15:54:01;;;;;;;23.85;14.95;;;;;;;;;;5039512;28;20025;-80
2021/01/05 15:56:47;;;;;;;21.45;14.15;;;;;;;;;;5038079;28;20034;-80
2021/01/05 15:59:32;;;;;;;24.67;15.63;;;;;;;;;;5035430;28;20021;-81
2021/01/05 16:02:18;;;;;;;21.73;14.57;;;;;;;;;;5038118;28;20497;-81
2021/01/05 16:05:03;;;;;;;22.80;14.52;;;;;;;;;;5037292;28;20101;-80
2021/01/05 16:07:56;;;;;;;25.33;14.73;;;;;;;;;;5030377;28;20040;-80
2021/01/05 16:10:41;;;;;;;31.98;20.73;;;;;;;;;;5040025;28;20021;-81